createdAt,value
2023-02-17T00:02:16.636Z,98636.36
2023-02-17T00:04:44.566Z,98635.50
2023-02-17T00:07:12.763Z,98636.70
2023-02-17T00:09:40.729Z,98638.23
2023-02-17T00:12:08.592Z,98635.65
2023-02-17T00:14:36.775Z,98633.59
2023-02-17T00:17:04.644Z,98635.28
2023-02-17T00:19:32.712Z,98635.27
2023-02-17T00:22:01.904Z,98635.08
2023-02-17T00:24:31.214Z,98635.23
2023-02-17T00:26:59.451Z,98636.27
2023-02-17T00:29:27.656Z,98635.58
2023-02-17T00:31:55.913Z,98634.73
2023-02-17T00:34:24.825Z,98632.84
2023-02-17T00:36:53.314Z,98627.39
2023-02-17T00:39:21.289Z,98625.33
2023-02-17T00:41:50.147Z,98626.69
2023-02-17T00:44:19.474Z,98629.55
2023-02-17T00:46:47.552Z,98627.66
2023-02-17T00:49:17.664Z,98621.86
2023-02-17T00:51:46.250Z,98615.89
2023-02-17T00:54:14.418Z,98611.10
2023-02-17T00:56:43.419Z,98612.98
2023-02-17T00:59:11.588Z,98607.86
2023-02-17T01:01:39.706Z,98604.79
2023-02-17T01:04:07.838Z,98605.62
2023-02-17T01:06:36.736Z,98604.09
2023-02-17T01:09:06.024Z,98603.55
2023-02-17T01:11:35.227Z,98604.05
2023-02-17T01:14:06.416Z,98603.70
2023-02-17T01:16:36.284Z,98598.58
2023-02-17T01:19:05.482Z,98596.88
2023-02-17T01:21:33.962Z,98596.69
2023-02-17T01:24:04.078Z,98594.45
2023-02-17T01:26:33.390Z,98592.07
2023-02-17T01:29:03.918Z,98591.56
2023-02-17T01:31:32.251Z,98593.92
2023-02-17T01:34:01.512Z,98594.96
2023-02-17T01:36:29.992Z,98593.24
2023-02-17T01:38:58.145Z,98592.90
2023-02-17T01:41:27.247Z,98591.54
2023-02-17T01:44:05.879Z,98591.02
2023-02-17T01:46:34.706Z,98585.75
2023-02-17T01:49:12.850Z,98579.63
2023-02-17T01:51:41.328Z,98579.45
2023-02-17T01:54:13.087Z,98579.43
2023-02-17T01:56:43.831Z,98583.33
2023-02-17T01:59:16.481Z,98582.30
2023-02-17T02:01:45.048Z,98575.66
2023-02-17T02:04:15.079Z,98570.20
2023-02-17T02:06:43.999Z,98567.45
2023-02-17T02:09:36.745Z,98562.33
2023-02-17T02:12:16.899Z,98560.79
2023-02-17T02:14:46.708Z,98558.23
2023-02-17T02:17:17.752Z,98554.31
2023-02-17T02:19:54.943Z,98550.05
2023-02-17T02:22:32.061Z,98549.54
2023-02-17T02:25:03.078Z,98550.55
2023-02-17T02:27:50.206Z,98547.30
2023-02-17T02:30:37.205Z,98542.86
2023-02-17T02:33:09.163Z,98544.90
2023-02-17T02:35:49.423Z,98549.64
2023-02-17T02:38:17.403Z,98548.63
2023-02-17T02:40:50.386Z,98549.45
2023-02-17T02:43:18.453Z,98552.34
2023-02-17T02:45:46.433Z,98552.85
2023-02-17T02:48:14.394Z,98552.67
2023-02-17T02:50:45.283Z,98555.24
2023-02-17T02:53:16.268Z,98557.79
2023-02-17T02:55:51.645Z,98559.50
2023-02-17T02:58:19.989Z,98555.26
2023-02-17T03:00:54.163Z,98556.81
2023-02-17T03:03:45.831Z,98559.76
2023-02-17T03:06:31.387Z,98561.31
2023-02-17T03:09:04.598Z,98556.77
2023-02-17T03:11:32.612Z,98560.20
2023-02-17T03:14:01.868Z,98568.04
2023-02-17T03:16:30.397Z,98570.42
2023-02-17T03:18:58.626Z,98573.33
2023-02-17T03:21:29.875Z,98572.65
2023-02-17T03:23:57.948Z,98572.33
2023-02-17T03:26:25.762Z,98568.60
2023-02-17T03:28:53.789Z,98569.47
2023-02-17T03:31:21.846Z,98571.20
2023-02-17T03:33:50.129Z,98573.08
2023-02-17T03:36:18.073Z,98572.05
2023-02-17T03:38:45.987Z,98571.88
2023-02-17T03:41:13.942Z,98572.40
2023-02-17T03:43:41.903Z,98572.40
2023-02-17T03:46:17.187Z,98572.08
2023-02-17T03:48:45.194Z,98573.45
2023-02-17T03:51:15.954Z,98570.70
2023-02-17T03:53:44.743Z,98573.42
2023-02-17T03:56:13.433Z,98576.64
2023-02-17T03:58:41.591Z,98578.48
2023-02-17T04:01:10.704Z,98578.77
2023-02-17T04:03:39.132Z,98575.71
2023-02-17T04:06:08.007Z,98575.17
2023-02-17T04:08:36.850Z,98572.07
2023-02-17T04:11:05.975Z,98573.06
2023-02-17T04:13:34.125Z,98575.61
2023-02-17T04:16:02.390Z,98578.82
2023-02-17T04:18:31.812Z,98580.14
2023-02-17T04:20:59.780Z,98581.63
2023-02-17T04:23:27.840Z,98582.95
2023-02-17T04:25:55.817Z,98582.89
2023-02-17T04:28:23.780Z,98582.36
2023-02-17T04:30:51.796Z,98583.52
2023-02-17T04:33:19.815Z,98576.84
2023-02-17T04:35:47.903Z,98574.95
2023-02-17T04:38:15.966Z,98574.92
2023-02-17T04:40:43.930Z,98577.46
2023-02-17T04:43:11.896Z,98580.33
2023-02-17T04:45:39.873Z,98584.05
2023-02-17T04:48:08.048Z,98581.02
2023-02-17T04:50:36.009Z,98579.13
2023-02-17T04:53:03.987Z,98576.06
2023-02-17T04:55:33.592Z,98573.99
2023-02-17T04:58:01.561Z,98573.13
2023-02-17T05:00:29.403Z,98573.98
2023-02-17T05:02:57.371Z,98577.34
2023-02-17T05:05:26.161Z,98575.60
2023-02-17T05:07:54.258Z,98578.66
2023-02-17T05:10:23.975Z,98578.95
2023-02-17T05:12:52.577Z,98581.14
2023-02-17T05:15:20.517Z,98581.12
2023-02-17T05:17:48.489Z,98581.11
2023-02-17T05:20:16.458Z,98581.08
2023-02-17T05:22:44.427Z,98582.94
2023-02-17T05:25:12.403Z,98587.84
2023-02-17T05:27:40.393Z,98586.95
2023-02-17T05:30:08.554Z,98587.25
2023-02-17T05:32:36.509Z,98588.75
2023-02-17T05:35:04.579Z,98586.54
2023-02-17T05:37:32.561Z,98585.52
2023-02-17T05:40:00.627Z,98585.70
2023-02-17T05:42:29.096Z,98582.83
2023-02-17T05:44:57.288Z,98586.40
2023-02-17T05:47:27.356Z,98586.08
2023-02-17T05:49:55.879Z,98584.23
2023-02-17T05:52:23.854Z,98588.33
2023-02-17T05:54:52.225Z,98585.48
2023-02-17T05:57:20.403Z,98588.20
2023-02-17T05:59:48.366Z,98593.00
2023-02-17T06:02:16.343Z,98594.39
2023-02-17T06:04:44.588Z,98595.80
2023-02-17T06:07:12.692Z,98602.30
2023-02-17T06:09:40.566Z,98606.96
2023-02-17T06:12:08.524Z,98607.19
2023-02-17T06:14:36.502Z,98600.44
2023-02-17T06:17:04.389Z,98601.19
2023-02-17T06:19:32.640Z,98605.33
2023-02-17T06:22:00.614Z,98604.36
2023-02-17T06:24:28.574Z,98609.17
2023-02-17T06:26:56.647Z,98607.87
2023-02-17T06:29:24.662Z,98606.06
2023-02-17T06:31:52.707Z,98605.29
2023-02-17T06:34:20.963Z,98602.77
2023-02-17T06:36:49.040Z,98603.70
2023-02-17T06:39:17.010Z,98610.06
2023-02-17T06:41:45.163Z,98611.85
2023-02-17T06:44:13.146Z,98616.86
2023-02-17T06:46:41.116Z,98611.64
2023-02-17T06:49:09.082Z,98612.90
2023-02-17T06:51:37.359Z,98618.61
2023-02-17T06:54:05.427Z,98621.58
2023-02-17T06:56:33.398Z,98624.37
2023-02-17T06:59:01.776Z,98625.27
2023-02-17T07:01:30.154Z,98622.23
2023-02-17T07:03:58.275Z,98623.13
2023-02-17T07:06:26.718Z,98625.73
2023-02-17T07:08:54.884Z,98623.55
2023-02-17T07:11:23.269Z,98620.00
2023-02-17T07:13:51.260Z,98618.82
2023-02-17T07:16:19.184Z,98621.91
2023-02-17T07:18:47.222Z,98627.90
2023-02-17T07:21:15.139Z,98630.97
2023-02-17T07:23:43.109Z,98626.70
2023-02-17T07:26:12.106Z,98634.73
2023-02-17T07:28:41.111Z,98636.58
2023-02-17T07:31:13.182Z,98632.97
2023-02-17T07:33:41.846Z,98627.97
2023-02-17T07:36:11.200Z,98632.70
2023-02-17T07:38:39.739Z,98631.98
2023-02-17T07:41:09.142Z,98629.17
2023-02-17T07:43:37.322Z,98626.23
2023-02-17T07:46:05.970Z,98617.95
2023-02-17T07:48:34.685Z,98609.66
2023-02-17T07:51:10.429Z,98605.10
2023-02-17T07:53:38.703Z,98601.69
2023-02-17T07:56:07.866Z,98604.48
2023-02-17T07:58:37.616Z,98605.03
2023-02-17T08:01:13.181Z,98604.22
2023-02-17T08:03:41.485Z,98608.59
2023-02-17T08:06:10.706Z,98611.77
2023-02-17T08:08:57.337Z,98610.11
2023-02-17T08:11:45.405Z,98616.17
2023-02-17T08:14:14.269Z,98620.09
2023-02-17T08:16:42.264Z,98622.71
2023-02-17T08:19:10.219Z,98624.02
2023-02-17T08:21:38.488Z,98623.59
2023-02-17T08:24:07.117Z,98624.33
2023-02-17T08:26:35.189Z,98622.30
2023-02-17T08:29:03.659Z,98624.89
2023-02-17T08:31:33.384Z,98623.82
2023-02-17T08:34:02.947Z,98618.97
2023-02-17T08:36:31.522Z,98620.63
2023-02-17T08:38:59.498Z,98621.27
2023-02-17T08:41:29.765Z,98618.85
2023-02-17T08:43:59.459Z,98625.69
2023-02-17T08:46:28.276Z,98626.91
2023-02-17T08:48:56.722Z,98624.98
2023-02-17T08:51:26.316Z,98623.03
2023-02-17T08:53:55.686Z,98621.77
2023-02-17T08:56:24.501Z,98621.56
2023-02-17T08:58:52.932Z,98622.58
2023-02-17T09:01:21.163Z,98619.83
2023-02-17T09:03:50.065Z,98611.34
2023-02-17T09:06:18.650Z,98616.55
2023-02-17T09:08:46.701Z,98619.40
2023-02-17T09:11:17.217Z,98624.08
2023-02-17T09:13:45.657Z,98627.61
2023-02-17T09:16:13.852Z,98629.83
2023-02-17T09:18:42.189Z,98632.27
2023-02-17T09:21:11.620Z,98628.50
2023-02-17T09:23:40.374Z,98633.25
2023-02-17T09:26:10.337Z,98633.39
2023-02-17T09:28:38.998Z,98632.20
2023-02-17T09:31:14.325Z,98639.73
2023-02-17T09:33:43.197Z,98638.96
2023-02-17T09:36:13.516Z,98646.07
2023-02-17T09:38:42.148Z,98641.36
2023-02-17T09:41:18.288Z,98639.69
2023-02-17T09:43:46.230Z,98636.14
2023-02-17T09:46:36.011Z,98636.73
2023-02-17T09:49:09.004Z,98637.16
2023-02-17T09:51:45.259Z,98631.30
2023-02-17T09:54:13.237Z,98629.15
2023-02-17T09:56:43.165Z,98619.95
2023-02-17T09:59:16.657Z,98611.96
2023-02-17T10:01:46.367Z,98615.16
2023-02-17T10:04:17.484Z,98609.41
2023-02-17T10:06:47.199Z,98603.93
2023-02-17T10:09:37.304Z,98598.91
2023-02-17T10:12:14.082Z,98594.41
2023-02-17T10:14:46.349Z,98590.14
2023-02-17T10:17:34.595Z,98585.17
2023-02-17T10:20:11.451Z,98585.73
2023-02-17T10:22:42.931Z,98584.47
2023-02-17T10:25:15.432Z,98576.05
2023-02-17T10:27:47.589Z,98570.73
2023-02-17T10:30:23.660Z,98574.91
2023-02-17T10:33:10.377Z,98568.52
2023-02-17T10:36:10.553Z,98564.43
2023-02-17T10:38:47.714Z,98557.11
2023-02-17T10:41:17.950Z,98555.66
2023-02-17T10:43:46.322Z,98551.20
2023-02-17T10:46:16.805Z,98543.86
2023-02-17T10:48:47.279Z,98539.88
2023-02-17T10:51:16.676Z,98542.90
2023-02-17T10:53:47.405Z,98538.55
2023-02-17T10:56:18.458Z,98537.02
2023-02-17T10:58:46.425Z,98534.40
2023-02-17T11:01:14.392Z,98525.21
2023-02-17T11:03:42.614Z,98516.63
2023-02-17T11:06:16.622Z,98517.16
2023-02-17T11:08:50.841Z,98512.44
2023-02-17T11:11:18.765Z,98507.36
2023-02-17T11:14:00.148Z,98498.45
2023-02-17T11:16:34.110Z,98498.44
2023-02-17T11:19:02.744Z,98498.41
2023-02-17T11:21:30.934Z,98496.98
2023-02-17T11:24:01.238Z,98494.54
2023-02-17T11:26:31.358Z,98490.25
2023-02-17T11:29:16.425Z,98482.69
2023-02-17T11:31:54.516Z,98472.98
2023-02-17T11:34:24.345Z,98478.10
2023-02-17T11:37:10.955Z,98483.19
2023-02-17T11:39:43.267Z,98488.77
2023-02-17T11:42:24.706Z,98480.91
2023-02-17T11:44:54.119Z,98471.60
2023-02-17T11:47:40.684Z,98467.28
2023-02-17T11:50:08.589Z,98455.21
2023-02-17T11:52:36.454Z,98451.16
2023-02-17T11:55:13.965Z,98453.30
2023-02-17T11:57:47.857Z,98452.70
2023-02-17T12:00:16.349Z,98452.41
2023-02-17T12:03:15.219Z,98454.89
2023-02-17T12:06:02.040Z,98456.39
2023-02-17T12:08:35.846Z,98455.50
2023-02-17T12:11:15.704Z,98453.24
2023-02-17T12:14:04.873Z,98453.57
2023-02-17T12:16:45.166Z,98455.29
2023-02-17T12:19:31.927Z,98451.76
2023-02-17T12:21:59.950Z,98448.23
2023-02-17T12:24:47.328Z,98448.27
2023-02-17T12:27:18.061Z,98446.02
2023-02-17T12:29:45.990Z,98447.84
2023-02-17T12:32:20.697Z,98450.37
2023-02-17T12:34:53.226Z,98445.09
2023-02-17T12:37:23.561Z,98442.29
2023-02-17T12:40:11.789Z,98444.94
2023-02-17T12:42:43.762Z,98447.40
2023-02-17T12:45:14.431Z,98444.95
2023-02-17T12:47:42.367Z,98438.86
2023-02-17T12:50:21.482Z,98430.61
2023-02-17T12:52:52.326Z,98428.20
2023-02-17T12:55:26.930Z,98419.79
2023-02-17T12:58:07.426Z,98419.98
2023-02-17T13:00:38.147Z,98418.71
2023-02-17T13:03:06.447Z,98418.11
2023-02-17T13:05:40.439Z,98416.25
2023-02-17T13:08:28.992Z,98416.98
2023-02-17T13:11:01.777Z,98414.33
2023-02-17T13:13:31.272Z,98411.23
2023-02-17T13:16:07.826Z,98403.59
2023-02-17T13:18:37.556Z,98400.84
2023-02-17T13:21:17.501Z,98399.87
2023-02-17T13:23:48.113Z,98396.20
2023-02-17T13:26:24.892Z,98397.54
2023-02-17T13:28:53.821Z,98397.85
2023-02-17T13:31:26.769Z,98394.87
2023-02-17T13:33:56.609Z,98392.83
2023-02-17T13:36:27.271Z,98396.83
2023-02-17T13:39:18.237Z,98391.16
2023-02-17T13:41:47.856Z,98385.92
2023-02-17T13:44:38.656Z,98388.02
2023-02-17T13:47:12.921Z,98393.27
2023-02-17T13:49:40.939Z,98397.46
2023-02-17T13:52:28.987Z,98395.48
2023-02-17T13:54:58.491Z,98391.23
2023-02-17T13:57:30.549Z,98390.42
2023-02-17T14:00:09.648Z,98390.73
2023-02-17T14:02:47.476Z,98390.20
2023-02-17T14:05:20.052Z,98392.19
2023-02-17T14:07:49.254Z,98391.15
2023-02-17T14:10:19.076Z,98395.13
2023-02-17T14:12:49.083Z,98394.88
2023-02-17T14:15:18.287Z,98395.17
2023-02-17T14:17:46.553Z,98395.30
2023-02-17T14:20:44.029Z,98399.16
2023-02-17T14:23:12.925Z,98396.48
2023-02-17T14:25:42.003Z,98397.52
2023-02-17T14:28:20.718Z,98399.75
2023-02-17T14:30:49.470Z,98400.63
2023-02-17T14:33:18.008Z,98403.67
2023-02-17T14:36:00.193Z,98403.46
2023-02-17T14:38:32.219Z,98409.16
2023-02-17T14:41:01.334Z,98407.27
2023-02-17T14:43:29.247Z,98407.63
2023-02-17T14:45:57.599Z,98401.68
2023-02-17T14:48:27.665Z,98399.95
2023-02-17T14:50:56.928Z,98407.86
2023-02-17T14:53:26.988Z,98404.52
2023-02-17T14:56:04.643Z,98399.32
2023-02-17T14:58:32.886Z,98399.46
2023-02-17T15:01:00.789Z,98393.35
2023-02-17T15:03:28.750Z,98388.52
2023-02-17T15:05:56.693Z,98388.46
2023-02-17T15:08:30.075Z,98385.83
2023-02-17T15:10:58.028Z,98384.54
2023-02-17T15:13:26.600Z,98382.39
2023-02-17T15:15:54.522Z,98381.86
2023-02-17T15:18:22.445Z,98379.58
2023-02-17T15:20:51.466Z,98378.28
2023-02-17T15:23:20.957Z,98379.23
2023-02-17T15:25:48.981Z,98372.65
2023-02-17T15:28:18.489Z,98374.35
2023-02-17T15:30:48.898Z,98370.14
2023-02-17T15:33:17.466Z,98366.12
2023-02-17T15:35:46.210Z,98364.73
2023-02-17T15:38:14.248Z,98357.15
2023-02-17T15:40:42.437Z,98355.40
2023-02-17T15:43:13.675Z,98349.67
2023-02-17T15:45:41.841Z,98347.77
2023-02-17T15:48:18.628Z,98342.34
2023-02-17T15:50:46.551Z,98347.98
2023-02-17T15:53:14.442Z,98346.12
2023-02-17T15:55:42.644Z,98341.07
2023-02-17T15:58:14.286Z,98343.26
2023-02-17T16:00:43.699Z,98347.02
2023-02-17T16:03:13.733Z,98347.92
2023-02-17T16:05:41.864Z,98353.46
2023-02-17T16:08:09.849Z,98355.40
2023-02-17T16:10:40.316Z,98349.90
2023-02-17T16:13:12.844Z,98352.39
2023-02-17T16:15:41.441Z,98356.59
2023-02-17T16:18:22.807Z,98359.89
2023-02-17T16:20:51.292Z,98359.95
2023-02-17T16:23:19.262Z,98357.45
2023-02-17T16:25:48.197Z,98360.73
2023-02-17T16:28:20.219Z,98365.94
2023-02-17T16:30:49.563Z,98371.61
2023-02-17T16:33:18.238Z,98377.08
2023-02-17T16:35:46.396Z,98377.28
2023-02-17T16:38:22.977Z,98378.19
2023-02-17T16:40:52.470Z,98380.48
2023-02-17T16:43:21.761Z,98384.32
2023-02-17T16:45:52.640Z,98381.83
2023-02-17T16:48:23.229Z,98380.86
2023-02-17T16:50:51.503Z,98378.00
2023-02-17T16:53:20.089Z,98384.13
2023-02-17T16:55:48.570Z,98389.30
2023-02-17T16:58:20.531Z,98397.98
2023-02-17T17:00:49.621Z,98397.11
2023-02-17T17:03:18.009Z,98400.23
2023-02-17T17:05:46.029Z,98401.84
2023-02-17T17:08:16.292Z,98400.52
2023-02-17T17:10:45.393Z,98398.65
2023-02-17T17:13:13.766Z,98392.31
2023-02-17T17:15:43.277Z,98385.61
2023-02-17T17:18:18.311Z,98377.88
2023-02-17T17:20:46.274Z,98377.73
2023-02-17T17:23:15.131Z,98373.36
2023-02-17T17:25:45.284Z,98364.69
2023-02-17T17:28:13.776Z,98369.92
2023-02-17T17:30:41.749Z,98371.70
2023-02-17T17:33:09.781Z,98370.04
2023-02-17T17:35:37.846Z,98370.26
2023-02-17T17:38:05.963Z,98373.93
2023-02-17T17:40:48.576Z,98374.48
2023-02-17T17:43:20.733Z,98377.14
2023-02-17T17:45:49.467Z,98380.84
2023-02-17T17:48:17.796Z,98382.94
2023-02-17T17:50:46.174Z,98383.36
2023-02-17T17:53:14.144Z,98378.44
2023-02-17T17:55:42.114Z,98372.95
2023-02-17T17:58:10.293Z,98370.40
2023-02-17T18:00:38.362Z,98365.96
2023-02-17T18:03:06.227Z,98359.17
2023-02-17T18:05:35.616Z,98352.27
2023-02-17T18:08:03.817Z,98349.26
2023-02-17T18:10:32.592Z,98347.67
2023-02-17T18:13:00.478Z,98352.30
2023-02-17T18:15:28.417Z,98349.30
2023-02-17T18:17:56.709Z,98347.65
2023-02-17T18:20:24.891Z,98344.27
2023-02-17T18:22:52.933Z,98341.19
2023-02-17T18:25:21.537Z,98339.16
2023-02-17T18:27:49.885Z,98338.67
2023-02-17T18:30:19.233Z,98338.53
2023-02-17T18:32:47.612Z,98331.16
2023-02-17T18:35:16.284Z,98327.27
2023-02-17T18:37:45.471Z,98327.83
2023-02-17T18:40:15.192Z,98328.38
2023-02-17T18:42:46.717Z,98326.65
2023-02-17T18:45:15.763Z,98327.01
2023-02-17T18:47:44.019Z,98329.80
2023-02-17T18:50:12.596Z,98323.45
2023-02-17T18:52:41.286Z,98322.00
2023-02-17T18:55:09.767Z,98318.95
2023-02-17T18:57:37.734Z,98324.89
2023-02-17T19:00:09.387Z,98324.23
2023-02-17T19:02:38.070Z,98320.13
2023-02-17T19:05:08.092Z,98319.48
2023-02-17T19:07:36.292Z,98328.82
2023-02-17T19:10:05.148Z,98329.36
2023-02-17T19:12:34.272Z,98325.73
2023-02-17T19:15:02.387Z,98328.84
2023-02-17T19:17:30.389Z,98321.95
2023-02-17T19:19:58.691Z,98314.21
2023-02-17T19:22:26.664Z,98310.93
2023-02-17T19:24:54.930Z,98314.42
2023-02-17T19:27:22.984Z,98315.54
2023-02-17T19:29:50.949Z,98311.45
2023-02-17T19:32:18.927Z,98308.20
2023-02-17T19:34:46.893Z,98307.59
2023-02-17T19:37:15.369Z,98310.58
2023-02-17T19:39:43.207Z,98301.98
2023-02-17T19:42:13.576Z,98294.65
2023-02-17T19:44:41.430Z,98295.90
2023-02-17T19:47:09.506Z,98294.63
2023-02-17T19:49:37.402Z,98288.58
2023-02-17T19:52:06.340Z,98286.81
2023-02-17T19:54:37.176Z,98283.91
2023-02-17T19:57:05.169Z,98282.05
2023-02-17T19:59:33.890Z,98279.33
2023-02-17T20:02:01.933Z,98273.33
2023-02-17T20:04:29.904Z,98273.84
2023-02-17T20:06:58.717Z,98270.41
2023-02-17T20:09:26.675Z,98263.03
2023-02-17T20:11:54.783Z,98262.70
2023-02-17T20:14:22.861Z,98257.23
2023-02-17T20:16:53.341Z,98246.94
2023-02-17T20:19:21.713Z,98244.92
2023-02-17T20:21:49.620Z,98245.13
2023-02-17T20:24:17.661Z,98237.08
2023-02-17T20:26:46.650Z,98231.98
2023-02-17T20:29:14.852Z,98227.35
2023-02-17T20:31:43.192Z,98223.44
2023-02-17T20:34:20.896Z,98223.95
2023-02-17T20:36:48.730Z,98220.16
2023-02-17T20:39:16.730Z,98218.25
2023-02-17T20:41:44.592Z,98219.11
2023-02-17T20:44:12.779Z,98215.65
2023-02-17T20:46:42.639Z,98212.91
2023-02-17T20:49:11.197Z,98211.19
2023-02-17T20:51:39.133Z,98209.32
2023-02-17T20:54:07.130Z,98204.88
2023-02-17T20:56:37.422Z,98202.96
2023-02-17T20:59:06.320Z,98203.30
2023-02-17T21:01:34.653Z,98205.54
2023-02-17T21:04:02.906Z,98195.73
2023-02-17T21:06:32.420Z,98189.36
2023-02-17T21:09:01.884Z,98188.53
2023-02-17T21:11:30.391Z,98193.02
2023-02-17T21:13:58.297Z,98175.30
2023-02-17T21:16:27.134Z,98181.27
2023-02-17T21:18:55.019Z,98182.41
2023-02-17T21:21:22.976Z,98187.48
2023-02-17T21:23:51.198Z,98179.03
2023-02-17T21:26:19.308Z,98180.73
2023-02-17T21:28:47.384Z,98174.89
2023-02-17T21:31:16.211Z,98168.98
2023-02-17T21:33:44.338Z,98167.29
2023-02-17T21:36:13.663Z,98163.70
2023-02-17T21:38:41.638Z,98166.80
2023-02-17T21:41:14.800Z,98163.52
2023-02-17T21:44:01.205Z,98159.28
2023-02-17T21:46:30.376Z,98157.05
2023-02-17T21:48:59.078Z,98154.27
2023-02-17T21:51:27.786Z,98149.27
2023-02-17T21:53:56.338Z,98151.52
2023-02-17T21:56:24.534Z,98151.12
2023-02-17T21:58:53.662Z,98152.81
2023-02-17T22:01:23.516Z,98152.46
2023-02-17T22:03:51.950Z,98151.79
2023-02-17T22:06:24.713Z,98151.04
2023-02-17T22:08:53.174Z,98146.21
2023-02-17T22:11:23.096Z,98149.63
2023-02-17T22:13:54.134Z,98139.54
2023-02-17T22:16:21.991Z,98141.52
2023-02-17T22:18:50.079Z,98136.30
2023-02-17T22:21:18.153Z,98135.89
2023-02-17T22:23:46.252Z,98135.28
2023-02-17T22:26:22.175Z,98126.92
2023-02-17T22:28:50.459Z,98117.85
2023-02-17T22:31:20.262Z,98111.95
2023-02-17T22:33:48.855Z,98112.21
2023-02-17T22:36:18.359Z,98107.48
2023-02-17T22:38:46.333Z,98097.38
2023-02-17T22:41:15.629Z,98090.63
2023-02-17T22:43:44.629Z,98085.56
2023-02-17T22:46:16.497Z,98083.95
2023-02-17T22:48:45.369Z,98082.02
2023-02-17T22:51:16.015Z,98073.02
2023-02-17T22:53:44.379Z,98067.48
2023-02-17T22:56:12.556Z,98064.14
2023-02-17T22:58:40.930Z,98052.58
2023-02-17T23:01:11.765Z,98052.30
2023-02-17T23:03:39.989Z,98050.79
2023-02-17T23:06:09.400Z,98041.22
2023-02-17T23:08:38.257Z,98036.42
2023-02-17T23:11:06.922Z,98035.95
2023-02-17T23:13:35.309Z,98031.58
2023-02-17T23:16:03.686Z,98028.23
2023-02-17T23:18:32.481Z,98026.05
2023-02-17T23:21:06.130Z,98025.91
2023-02-17T23:23:34.351Z,98025.57
2023-02-17T23:26:02.327Z,98018.33
2023-02-17T23:28:31.018Z,98011.42
2023-02-17T23:30:59.125Z,98013.30
2023-02-17T23:33:27.358Z,98011.74
2023-02-17T23:35:55.330Z,97999.54
2023-02-17T23:38:23.312Z,97991.88
2023-02-17T23:40:52.092Z,97995.00
2023-02-17T23:43:20.163Z,98003.59
2023-02-17T23:45:48.908Z,98006.70
2023-02-17T23:48:17.083Z,98002.78
2023-02-17T23:50:44.869Z,98002.64
2023-02-17T23:53:12.654Z,97999.59
2023-02-17T23:55:40.721Z,97990.35
2023-02-17T23:58:08.584Z,97992.62
